createdAt,value
2018-05-02T00:00:56.469Z,1.23
2018-05-02T00:03:24.867Z,1.00
2018-05-02T00:05:53.210Z,0.60
2018-05-02T00:08:22.608Z,0.73
2018-05-02T00:10:51.601Z,0.73
2018-05-02T00:13:20.602Z,0.80
2018-05-02T00:15:48.830Z,0.93
2018-05-02T00:18:17.063Z,0.60
2018-05-02T00:20:45.291Z,0.87
2018-05-02T00:23:13.529Z,0.70
2018-05-02T00:25:41.771Z,1.00
2018-05-02T00:28:10.457Z,0.80
2018-05-02T00:30:39.217Z,1.00
2018-05-02T00:33:08.332Z,1.03
2018-05-02T00:35:36.586Z,0.90
2018-05-02T00:38:05.679Z,0.70
2018-05-02T00:40:33.976Z,0.87
2018-05-02T00:43:02.431Z,0.80
2018-05-02T00:45:30.667Z,1.03
2018-05-02T00:47:58.892Z,1.03
2018-05-02T00:50:27.908Z,0.87
2018-05-02T00:52:56.135Z,1.10
2018-05-02T00:55:24.383Z,0.60
2018-05-02T00:57:52.703Z,0.90
2018-05-02T01:00:20.958Z,0.80
2018-05-02T01:02:49.187Z,0.60
2018-05-02T01:05:17.535Z,0.93
2018-05-02T01:07:45.803Z,0.80
2018-05-02T01:10:14.058Z,0.60
2018-05-02T01:12:42.318Z,0.60
2018-05-02T01:15:10.527Z,0.80
2018-05-02T01:17:38.825Z,0.60
2018-05-02T01:20:07.184Z,0.83
2018-05-02T01:22:35.776Z,0.80
2018-05-02T01:25:04.004Z,0.83
2018-05-02T01:27:32.317Z,0.90
2018-05-02T01:30:00.546Z,0.80
2018-05-02T01:32:28.906Z,0.50
2018-05-02T01:34:57.332Z,1.00
2018-05-02T01:37:26.649Z,0.77
2018-05-02T01:39:55.146Z,0.70
2018-05-02T01:42:23.803Z,1.00
2018-05-02T01:44:52.814Z,0.67
2018-05-02T01:47:21.032Z,0.80
2018-05-02T01:49:49.276Z,0.80
2018-05-02T01:52:17.936Z,0.70
2018-05-02T01:54:46.163Z,0.80
2018-05-02T01:57:14.388Z,0.80
2018-05-02T01:59:42.625Z,0.80
2018-05-02T02:02:10.860Z,0.60
2018-05-02T02:04:39.310Z,0.80
2018-05-02T02:07:07.551Z,0.67
2018-05-02T02:09:35.885Z,0.80
2018-05-02T02:12:04.216Z,0.60
2018-05-02T02:14:33.211Z,0.77
2018-05-02T02:17:01.460Z,0.60
2018-05-02T02:19:30.186Z,0.70
2018-05-02T02:21:58.489Z,0.60
2018-05-02T02:24:26.736Z,0.67
2018-05-02T02:26:55.035Z,0.70
2018-05-02T02:29:23.285Z,0.90
2018-05-02T02:31:51.504Z,0.73
2018-05-02T02:34:19.951Z,0.70
2018-05-02T02:36:48.166Z,0.70
2018-05-02T02:39:16.410Z,0.80
2018-05-02T02:41:44.630Z,0.70
2018-05-02T02:44:12.940Z,0.70
2018-05-02T02:46:41.299Z,0.70
2018-05-02T02:49:10.387Z,0.70
2018-05-02T02:51:39.392Z,0.70
2018-05-02T02:54:07.975Z,0.80
2018-05-02T02:56:37.173Z,0.50
2018-05-02T02:59:05.561Z,0.70
2018-05-02T03:01:33.787Z,0.60
2018-05-02T03:04:02.405Z,0.80
2018-05-02T03:06:30.873Z,0.67
2018-05-02T03:09:00.176Z,0.60
2018-05-02T03:11:28.474Z,0.63
2018-05-02T03:13:57.134Z,0.60
2018-05-02T03:16:25.509Z,0.80
2018-05-02T03:18:53.780Z,0.57
2018-05-02T03:21:22.024Z,0.60
2018-05-02T03:23:51.062Z,0.90
2018-05-02T03:26:19.290Z,0.70
2018-05-02T03:28:47.613Z,0.70
2018-05-02T03:31:15.915Z,0.73
2018-05-02T03:33:44.183Z,0.70
2018-05-02T03:36:12.465Z,0.60
2018-05-02T03:38:40.916Z,0.60
2018-05-02T03:41:09.787Z,0.50
2018-05-02T03:43:38.109Z,0.70
2018-05-02T03:46:06.759Z,0.70
2018-05-02T03:48:35.130Z,0.67
2018-05-02T03:51:03.739Z,0.80
2018-05-02T03:53:32.111Z,0.60
2018-05-02T03:56:00.327Z,0.90
2018-05-02T03:58:28.559Z,0.60
2018-05-02T04:01:08.543Z,0.60
2018-05-02T04:03:48.429Z,0.70
2018-05-02T04:06:28.249Z,0.60
2018-05-02T04:08:56.547Z,0.67
2018-05-02T04:11:24.773Z,0.80
2018-05-02T04:13:53.019Z,0.60
2018-05-02T04:16:21.693Z,0.60
2018-05-02T04:18:49.948Z,0.60
2018-05-02T04:21:18.155Z,0.70
2018-05-02T04:23:46.391Z,0.80
2018-05-02T04:26:14.799Z,0.60
2018-05-02T04:28:43.059Z,0.70
2018-05-02T04:31:12.041Z,0.60
2018-05-02T04:33:41.034Z,0.97
2018-05-02T04:36:10.253Z,0.50
2018-05-02T04:38:38.606Z,0.60
2018-05-02T04:41:07.634Z,0.50
2018-05-02T04:43:36.903Z,0.60
2018-05-02T04:46:05.906Z,0.60
2018-05-02T04:48:34.144Z,0.60
2018-05-02T04:51:02.406Z,0.70
2018-05-02T04:53:31.137Z,0.60
2018-05-02T04:55:59.820Z,0.80
2018-05-02T04:58:28.189Z,0.50
2018-05-02T05:00:56.438Z,0.67
2018-05-02T05:03:24.737Z,0.73
2018-05-02T05:05:53.300Z,0.70
2018-05-02T05:08:21.522Z,0.63
2018-05-02T05:10:49.761Z,0.70
2018-05-02T05:13:18.764Z,0.67
2018-05-02T05:15:47.766Z,0.70
2018-05-02T05:18:16.006Z,0.50
2018-05-02T05:20:44.231Z,0.60
2018-05-02T05:23:12.897Z,0.50
2018-05-02T05:25:41.116Z,0.83
2018-05-02T05:28:09.426Z,0.70
2018-05-02T05:30:37.575Z,0.53
2018-05-02T05:33:06.090Z,0.60
2018-05-02T05:35:35.498Z,0.60
2018-05-02T05:38:03.737Z,0.50
2018-05-02T05:40:32.143Z,0.80
2018-05-02T05:43:00.733Z,0.70
2018-05-02T05:45:28.968Z,0.80
2018-05-02T05:47:57.284Z,0.60
2018-05-02T05:50:25.611Z,0.80
2018-05-02T05:52:53.854Z,0.63
2018-05-02T05:55:22.086Z,0.70
2018-05-02T05:57:50.381Z,0.67
2018-05-02T06:00:18.649Z,0.63
2018-05-02T06:02:47.037Z,0.50
2018-05-02T06:05:15.340Z,0.50
2018-05-02T06:07:43.488Z,0.60
2018-05-02T06:10:11.720Z,0.50
2018-05-02T06:12:39.950Z,0.60
2018-05-02T06:15:08.193Z,0.60
2018-05-02T06:17:36.427Z,0.70
2018-05-02T06:20:04.668Z,0.70
2018-05-02T06:22:33.128Z,0.50
2018-05-02T06:25:01.365Z,0.60
2018-05-02T06:27:29.600Z,0.60
2018-05-02T06:29:57.837Z,0.90
2018-05-02T06:32:27.232Z,0.60
2018-05-02T06:34:56.231Z,0.50
2018-05-02T06:37:24.465Z,0.60
2018-05-02T06:39:52.774Z,0.60
2018-05-02T06:42:21.281Z,0.50
2018-05-02T06:44:50.481Z,0.47
2018-05-02T06:47:18.708Z,0.60
2018-05-02T06:49:46.938Z,0.70
2018-05-02T06:52:15.171Z,0.40
2018-05-02T06:54:44.569Z,0.60
2018-05-02T06:57:12.717Z,0.70
2018-05-02T06:59:40.940Z,0.50
2018-05-02T07:02:09.311Z,0.57
2018-05-02T07:04:37.545Z,0.67
2018-05-02T07:07:05.885Z,0.90
2018-05-02T07:09:34.139Z,0.50
2018-05-02T07:12:02.735Z,0.60
2018-05-02T07:14:31.396Z,0.80
2018-05-02T07:17:00.084Z,0.70
2018-05-02T07:19:28.365Z,0.80
2018-05-02T07:21:56.734Z,0.67
2018-05-02T07:24:24.990Z,0.80
2018-05-02T07:26:53.626Z,0.90
2018-05-02T07:29:21.865Z,0.70
2018-05-02T07:31:50.106Z,0.90
2018-05-02T07:34:18.713Z,0.90
2018-05-02T07:36:47.712Z,0.93
2018-05-02T07:39:15.962Z,1.17
2018-05-02T07:41:44.188Z,1.00
2018-05-02T07:44:12.427Z,1.00
2018-05-02T07:46:41.414Z,1.23
2018-05-02T07:49:09.793Z,1.00
2018-05-02T07:51:38.377Z,1.47
2018-05-02T07:54:06.679Z,1.30
2018-05-02T07:56:35.515Z,1.13
2018-05-02T07:59:04.029Z,1.23
2018-05-02T08:01:32.269Z,1.23
2018-05-02T08:04:00.672Z,1.10
2018-05-02T08:06:28.925Z,1.37
2018-05-02T08:08:57.537Z,1.27
2018-05-02T08:11:26.227Z,1.43
2018-05-02T08:13:54.573Z,1.27
2018-05-02T08:16:22.958Z,1.60
2018-05-02T08:18:51.468Z,1.80
2018-05-02T08:21:19.704Z,1.20
2018-05-02T08:23:47.936Z,1.23
2018-05-02T08:26:16.160Z,1.17
2018-05-02T08:28:45.164Z,1.30
2018-05-02T08:31:14.263Z,1.80
2018-05-02T08:33:42.734Z,2.03
2018-05-02T08:36:11.022Z,2.60
2018-05-02T08:38:40.526Z,2.30
2018-05-02T08:41:08.767Z,2.17
2018-05-02T08:43:37.106Z,2.30
2018-05-02T08:46:05.424Z,2.50
2018-05-02T08:48:34.474Z,2.23
2018-05-02T08:52:09.652Z,3.00
2018-05-02T08:54:38.200Z,2.53
2018-05-02T08:57:06.432Z,2.90
2018-05-02T08:59:34.676Z,2.23
2018-05-02T09:02:02.901Z,2.10
2018-05-02T09:04:31.676Z,2.33
2018-05-02T09:08:41.320Z,2.83
2018-05-02T09:11:09.760Z,2.67
2018-05-02T09:13:38.482Z,2.07
2018-05-02T09:16:06.778Z,2.00
2018-05-02T09:18:35.439Z,1.70
2018-05-02T09:22:20.494Z,1.47
2018-05-02T09:24:48.721Z,1.73
2018-05-02T09:27:16.955Z,1.67
2018-05-02T09:29:45.553Z,1.43
2018-05-02T09:32:13.777Z,1.13
2018-05-02T09:34:42.010Z,1.30
2018-05-02T09:37:10.336Z,2.23
2018-05-02T09:39:38.733Z,1.30
2018-05-02T09:42:07.728Z,1.30
2018-05-02T09:44:36.945Z,1.30
2018-05-02T09:47:05.201Z,1.10
2018-05-02T09:49:34.190Z,1.20
2018-05-02T09:52:02.521Z,1.27
2018-05-02T09:54:31.247Z,1.37
2018-05-02T09:57:00.244Z,1.30
2018-05-02T09:59:28.493Z,1.60
2018-05-02T10:01:57.209Z,1.80
2018-05-02T10:04:25.698Z,1.50
2018-05-02T10:06:53.925Z,1.37
2018-05-02T10:09:22.156Z,2.73
2018-05-02T10:11:50.725Z,2.70
2018-05-02T10:14:18.964Z,3.00
2018-05-02T10:16:47.297Z,3.00
2018-05-02T10:19:15.526Z,2.60
2018-05-02T10:21:44.645Z,2.93
2018-05-02T10:24:13.017Z,3.00
2018-05-02T10:26:41.282Z,3.95
2018-05-02T10:29:09.873Z,3.90
2018-05-02T10:31:38.107Z,2.83
2018-05-02T10:34:06.354Z,3.30
2018-05-02T10:36:34.592Z,3.37
2018-05-02T10:39:03.585Z,3.80
2018-05-02T10:41:32.593Z,3.00
2018-05-02T10:44:00.854Z,2.83
2018-05-02T10:46:29.089Z,3.53
2018-05-02T10:48:57.316Z,3.20
2018-05-02T10:51:25.553Z,3.03
2018-05-02T10:53:53.791Z,2.47
2018-05-02T10:56:22.153Z,3.10
2018-05-02T10:58:50.437Z,3.10
2018-05-02T11:01:18.752Z,3.20
2018-05-02T11:03:46.984Z,2.70
2018-05-02T11:06:15.211Z,3.07
2018-05-02T11:08:43.914Z,2.80
2018-05-02T11:11:12.193Z,2.43
2018-05-02T11:13:40.445Z,3.60
2018-05-02T11:16:08.827Z,2.97
2018-05-02T11:18:37.210Z,2.50
2018-05-02T11:21:06.200Z,2.80
2018-05-02T11:23:34.438Z,2.50
2018-05-02T11:26:02.748Z,1.93
2018-05-02T11:28:31.121Z,1.80
2018-05-02T11:31:00.237Z,2.10
2018-05-02T11:33:28.478Z,2.10
2018-05-02T11:35:56.708Z,2.63
2018-05-02T11:38:24.937Z,2.40
2018-05-02T11:40:53.523Z,2.27
2018-05-02T11:43:22.217Z,2.03
2018-05-02T11:45:50.514Z,1.63
2018-05-02T11:48:18.738Z,2.13
2018-05-02T11:50:47.150Z,2.47
2018-05-02T11:53:15.407Z,2.17
2018-05-02T11:55:44.387Z,2.80
2018-05-02T11:58:13.386Z,3.20
2018-05-02T12:00:41.872Z,2.40
2018-05-02T12:03:10.152Z,2.20
2018-05-02T12:05:38.532Z,3.20
2018-05-02T12:08:07.286Z,2.20
2018-05-02T12:10:36.098Z,2.40
2018-05-02T12:13:04.345Z,2.33
2018-05-02T12:15:32.752Z,2.07
2018-05-02T12:18:00.989Z,2.13
2018-05-02T12:20:29.215Z,2.33
2018-05-02T12:22:57.934Z,2.10
2018-05-02T12:25:26.169Z,2.13
2018-05-02T12:27:54.946Z,1.77
2018-05-02T12:30:23.550Z,2.00
2018-05-02T12:32:51.808Z,2.10
2018-05-02T12:35:20.533Z,2.53
2018-05-02T12:37:48.727Z,1.90
2018-05-02T12:40:16.958Z,1.80
2018-05-02T12:42:45.403Z,2.23
2018-05-02T12:45:14.500Z,2.37
2018-05-02T12:47:43.100Z,1.97
2018-05-02T12:50:11.337Z,1.67
2018-05-02T12:52:39.731Z,2.77
2018-05-02T12:55:08.334Z,2.30
2018-05-02T12:57:36.684Z,2.20
2018-05-02T13:00:04.921Z,1.97
2018-05-02T13:02:33.184Z,2.50
2018-05-02T13:05:02.387Z,1.80
2018-05-02T13:07:30.613Z,3.10
2018-05-02T13:09:59.203Z,3.03
2018-05-02T13:12:28.203Z,3.30
2018-05-02T13:14:56.437Z,2.53
2018-05-02T13:17:24.675Z,2.87
2018-05-02T13:19:52.917Z,2.97
2018-05-02T13:22:21.925Z,3.13
2018-05-02T13:24:50.152Z,3.20
2018-05-02T13:27:18.389Z,3.00
2018-05-02T13:29:46.718Z,2.63
2018-05-02T13:32:15.736Z,3.40
2018-05-02T13:34:43.964Z,4.50
2018-05-02T13:37:12.214Z,3.90
2018-05-02T13:39:40.445Z,3.53
2018-05-02T13:42:09.446Z,3.67
2018-05-02T13:44:37.894Z,4.70
2018-05-02T13:47:06.225Z,4.53
2018-05-02T13:49:34.633Z,4.07
2018-05-02T13:52:03.545Z,3.90
2018-05-02T13:54:31.855Z,4.30
2018-05-02T13:57:00.203Z,3.13
2018-05-02T13:59:28.439Z,3.13
2018-05-02T14:01:56.659Z,3.30
2018-05-02T14:04:24.909Z,3.27
2018-05-02T14:06:53.153Z,3.80
2018-05-02T14:09:21.388Z,3.03
2018-05-02T14:11:49.632Z,2.70
2018-05-02T14:14:18.083Z,2.60
2018-05-02T14:16:46.313Z,2.80
2018-05-02T14:19:15.303Z,2.33
2018-05-02T14:21:44.105Z,2.50
2018-05-02T14:24:12.553Z,2.30
2018-05-02T14:26:41.560Z,3.10
2018-05-02T14:29:09.851Z,2.60
2018-05-02T14:31:38.415Z,2.40
2018-05-02T14:34:07.611Z,2.43
2018-05-02T14:36:36.208Z,2.80
2018-05-02T14:39:04.454Z,2.93
2018-05-02T14:41:32.680Z,2.90
2018-05-02T14:44:00.917Z,2.47
2018-05-02T14:46:29.925Z,2.40
2018-05-02T14:48:58.792Z,3.10
2018-05-02T14:51:27.083Z,3.00
2018-05-02T14:53:55.522Z,3.17
2018-05-02T14:56:23.760Z,2.53
2018-05-02T14:58:52.004Z,2.90
2018-05-02T15:01:20.245Z,2.97
2018-05-02T15:03:48.468Z,3.30
2018-05-02T15:06:16.701Z,3.20
2018-05-02T15:08:45.084Z,3.20
2018-05-02T15:11:13.369Z,3.20
2018-05-02T15:13:41.920Z,3.47
2018-05-02T15:16:10.148Z,3.33
2018-05-02T15:18:38.377Z,3.40
2018-05-02T15:21:06.708Z,2.80
2018-05-02T15:23:34.937Z,3.70
2018-05-02T15:26:03.165Z,3.30
2018-05-02T15:28:31.404Z,3.80
2018-05-02T15:30:59.645Z,3.33
2018-05-02T15:33:28.560Z,3.40
2018-05-02T15:35:56.941Z,3.20
2018-05-02T15:38:25.164Z,2.63
2018-05-02T15:40:53.581Z,2.90
2018-05-02T15:43:22.589Z,2.77
2018-05-02T15:45:51.581Z,3.10
2018-05-02T15:48:20.704Z,3.60
2018-05-02T15:50:49.154Z,2.47
2018-05-02T15:53:17.414Z,3.50
2018-05-02T15:55:46.733Z,3.10
2018-05-02T15:58:15.465Z,2.70
2018-05-02T16:00:43.664Z,2.30
2018-05-02T16:03:11.983Z,2.60
2018-05-02T16:05:40.216Z,2.93
2018-05-02T16:08:08.570Z,3.13
2018-05-02T16:10:36.817Z,2.60
2018-05-02T16:13:05.041Z,2.20
2018-05-02T16:15:33.450Z,2.67
2018-05-02T16:18:02.025Z,2.53
2018-05-02T16:20:30.260Z,2.57
2018-05-02T16:22:58.973Z,2.47
2018-05-02T16:25:28.185Z,2.40
2018-05-02T16:27:56.655Z,1.90
2018-05-02T16:30:24.845Z,2.83
2018-05-02T16:32:53.087Z,2.50
2018-05-02T16:35:21.672Z,1.80
2018-05-02T16:37:50.668Z,2.03
2018-05-02T16:40:19.039Z,2.10
2018-05-02T16:42:48.057Z,2.00
2018-05-02T16:45:16.287Z,2.23
2018-05-02T16:47:44.520Z,2.67
2018-05-02T16:50:12.768Z,2.40
2018-05-02T16:52:41.006Z,2.60
2018-05-02T16:55:09.252Z,3.03
2018-05-02T16:57:37.482Z,2.40
2018-05-02T17:00:06.797Z,2.53
2018-05-02T17:02:35.031Z,2.03
2018-05-02T17:05:03.367Z,2.27
2018-05-02T17:07:31.713Z,2.20
2018-05-02T17:09:59.987Z,2.83
2018-05-02T17:12:28.259Z,2.63
2018-05-02T17:14:56.500Z,2.67
2018-05-02T17:17:25.132Z,2.37
2018-05-02T17:19:53.488Z,1.80
2018-05-02T17:22:22.084Z,2.00
2018-05-02T17:24:51.852Z,2.47
2018-05-02T17:27:20.696Z,1.93
2018-05-02T17:29:48.924Z,1.93
2018-05-02T17:32:17.261Z,2.00
2018-05-02T17:34:45.601Z,2.40
2018-05-02T17:37:14.584Z,1.90
2018-05-02T17:39:44.799Z,1.90
2018-05-02T17:42:14.104Z,1.90
2018-05-02T17:44:43.115Z,1.83
2018-05-02T17:47:11.402Z,2.30
2018-05-02T17:49:39.637Z,1.80
2018-05-02T17:52:08.865Z,1.90
2018-05-02T17:54:37.101Z,2.10
2018-05-02T17:57:05.713Z,2.10
2018-05-02T17:59:33.947Z,1.70
2018-05-02T18:02:02.539Z,1.70
2018-05-02T18:04:30.747Z,1.87
2018-05-02T18:06:58.968Z,1.57
2018-05-02T18:09:27.205Z,1.37
2018-05-02T18:11:55.429Z,2.40
2018-05-02T18:14:23.673Z,1.90
2018-05-02T18:16:51.902Z,1.60
2018-05-02T18:19:21.048Z,1.90
2018-05-02T18:21:50.434Z,1.73
2018-05-02T18:24:18.901Z,1.83
2018-05-02T18:26:47.133Z,2.03
2018-05-02T18:29:16.750Z,1.37
2018-05-02T18:31:45.647Z,2.00
2018-05-02T18:34:13.967Z,1.80
2018-05-02T18:36:42.298Z,1.50
2018-05-02T18:39:10.524Z,1.30
2018-05-02T18:41:38.765Z,1.40
2018-05-02T18:44:07.127Z,1.70
2018-05-02T18:46:35.807Z,1.93
2018-05-02T18:49:04.815Z,1.67
2018-05-02T18:51:33.113Z,2.00
2018-05-02T18:54:01.354Z,1.57
2018-05-02T18:56:29.724Z,1.73
2018-05-02T18:58:59.083Z,1.50
2018-05-02T19:01:27.325Z,1.47
2018-05-02T19:03:55.623Z,1.53
2018-05-02T19:06:24.780Z,1.90
2018-05-02T19:08:53.018Z,1.73
2018-05-02T19:11:21.256Z,1.20
2018-05-02T19:13:55.798Z,1.60
2018-05-02T19:16:24.028Z,1.43
2018-05-02T19:18:57.801Z,1.70
2018-05-02T19:21:26.108Z,1.63
2018-05-02T19:23:55.025Z,1.50
2018-05-02T19:26:29.442Z,1.80
2018-05-02T19:28:57.688Z,1.40
2018-05-02T19:31:31.608Z,1.60
2018-05-02T19:33:59.857Z,1.57
2018-05-02T19:36:28.875Z,1.27
2018-05-02T19:38:57.662Z,1.20
2018-05-02T19:41:31.581Z,1.63
2018-05-02T19:44:02.003Z,1.30
2018-05-02T19:46:30.252Z,1.47
2018-05-02T19:48:59.269Z,1.40
2018-05-02T19:51:33.049Z,1.10
2018-05-02T19:54:01.292Z,1.60
2018-05-02T19:56:29.507Z,1.27
2018-05-02T19:58:57.875Z,1.40
2018-05-02T20:01:31.949Z,1.33
2018-05-02T20:04:00.191Z,1.30
2018-05-02T20:06:28.606Z,1.40
2018-05-02T20:09:03.235Z,1.00
2018-05-02T20:11:37.260Z,1.43
2018-05-02T20:14:06.895Z,1.40
2018-05-02T20:16:35.116Z,1.00
2018-05-02T20:19:03.745Z,1.57
2018-05-02T20:21:31.967Z,1.60
2018-05-02T20:24:00.701Z,1.30
2018-05-02T20:26:28.980Z,1.47
2018-05-02T20:28:57.203Z,1.10
2018-05-02T20:31:25.444Z,1.50
2018-05-02T20:33:53.685Z,1.20
2018-05-02T20:36:22.687Z,1.40
2018-05-02T20:38:51.574Z,1.20
2018-05-02T20:41:19.810Z,1.03
2018-05-02T20:43:48.032Z,1.40
2018-05-02T20:46:16.299Z,1.47
2018-05-02T20:48:44.537Z,1.40
2018-05-02T20:51:13.594Z,1.30
2018-05-02T20:53:42.467Z,1.20
2018-05-02T20:56:10.706Z,1.40
2018-05-02T20:58:38.932Z,1.37
2018-05-02T21:01:07.312Z,1.20
2018-05-02T21:03:35.559Z,1.17
2018-05-02T21:06:03.848Z,1.10
2018-05-02T21:08:32.088Z,1.33
2018-05-02T21:11:01.092Z,1.40
2018-05-02T21:13:29.581Z,1.20
2018-05-02T21:15:58.143Z,0.87
2018-05-02T21:18:26.843Z,1.30
2018-05-02T21:20:55.137Z,1.27
2018-05-02T21:23:23.356Z,1.40
2018-05-02T21:25:52.064Z,1.63
2018-05-02T21:28:20.304Z,1.47
2018-05-02T21:30:49.073Z,0.97
2018-05-02T21:33:17.484Z,1.10
2018-05-02T21:35:45.717Z,1.37
2018-05-02T21:38:13.943Z,1.03
2018-05-02T21:40:42.537Z,1.53
2018-05-02T21:43:10.817Z,1.20
2018-05-02T21:45:39.057Z,1.20
2018-05-02T21:48:07.448Z,1.00
2018-05-02T21:50:35.733Z,1.00
2018-05-02T21:53:04.819Z,1.10
2018-05-02T21:55:33.808Z,1.00
2018-05-02T21:58:02.905Z,1.40
2018-05-02T22:00:31.909Z,1.00
2018-05-02T22:03:00.145Z,1.23
2018-05-02T22:05:29.894Z,1.20
2018-05-02T22:07:58.115Z,1.20
2018-05-02T22:10:26.353Z,1.20
2018-05-02T22:12:55.038Z,1.00
2018-05-02T22:15:23.275Z,1.10
2018-05-02T22:17:51.984Z,1.00
2018-05-02T22:20:20.221Z,1.10
2018-05-02T22:22:48.940Z,1.30
2018-05-02T22:25:17.325Z,1.30
2018-05-02T22:27:45.565Z,1.07
2018-05-02T22:30:13.790Z,1.00
2018-05-02T22:32:42.024Z,1.07
2018-05-02T22:35:10.258Z,1.10
2018-05-02T22:37:38.501Z,1.00
2018-05-02T22:40:06.729Z,1.03
2018-05-02T22:42:34.976Z,1.20
2018-05-02T22:45:03.200Z,1.17
2018-05-02T22:47:32.204Z,0.90
2018-05-02T22:50:00.796Z,0.90
2018-05-02T22:52:29.088Z,1.30
2018-05-02T22:54:57.334Z,0.90
2018-05-02T22:57:25.585Z,1.00
2018-05-02T22:59:53.814Z,0.90
2018-05-02T23:02:22.584Z,1.10
2018-05-02T23:04:50.814Z,0.87
2018-05-02T23:07:19.062Z,0.87
2018-05-02T23:09:47.287Z,1.10
2018-05-02T23:12:15.785Z,1.10
2018-05-02T23:14:44.008Z,1.00
2018-05-02T23:17:12.474Z,1.03
2018-05-02T23:19:40.888Z,0.90
2018-05-02T23:22:09.124Z,0.90
2018-05-02T23:24:37.457Z,0.93
2018-05-02T23:27:05.670Z,1.50
2018-05-02T23:29:33.909Z,0.83
2018-05-02T23:32:02.157Z,0.90
2018-05-02T23:34:31.474Z,0.90
2018-05-02T23:36:59.717Z,0.90
2018-05-02T23:39:27.941Z,1.10
2018-05-02T23:41:56.286Z,0.90
2018-05-02T23:44:25.292Z,0.80
2018-05-02T23:46:54.292Z,1.20
2018-05-02T23:49:22.671Z,0.90
2018-05-02T23:51:51.041Z,0.70
2018-05-02T23:54:19.607Z,0.80
2018-05-02T23:56:48.631Z,1.03
2018-05-02T23:59:16.864Z,1.00
